Terminal Aerodrome Forecast
Issued by NWS

Home | Current Version | Previous Version | Text Only | Print | Product List | Glossary On
Versions: 1 2 3 4 5 6 7 8 9 10 11 12 13 14 15 16 17 18 19 20 21 22 23 24 25 26 27 28 29 30 31 32 33 34 35 36 37
000
FTUS45 KGJT 262158 AAA
TAFTEX
TAF AMD
KTEX 262158Z 2622/2718 27006KT 4SM -SHSN BR OVC030
      TEMPO 2622/2624 2SM -SN BKN008
     FM270200 14005KT P6SM VCSH OVC050
     FM270600 16004KT P6SM VCSH SCT035 OVC050
     FM271100 21003KT P6SM BKN090=

USA.gov is the U.S. government's official web portal to all federal, state and local government web resources and services.